sensor_id;sensor_type;location;lat;lon;timestamp;pressure;altitude;pressure_sealevel;temperature;humidity
51468;BME280;37545;45.302;-122.946;2023-02-10T00:01:41;101358.53;;;14.10;48.01
51468;BME280;37545;45.302;-122.946;2023-02-10T00:04:11;101357.44;;;14.00;49.01
51468;BME280;37545;45.302;-122.946;2023-02-10T00:06:41;101352.88;;;13.91;49.49
51468;BME280;37545;45.302;-122.946;2023-02-10T00:09:12;101347.50;;;13.85;49.95
51468;BME280;37545;45.302;-122.946;2023-02-10T00:11:41;101354.38;;;13.83;49.54
51468;BME280;37545;45.302;-122.946;2023-02-10T00:14:32;101355.19;;;13.79;50.73
51468;BME280;37545;45.302;-122.946;2023-02-10T00:17:00;101353.41;;;13.78;49.96
51468;BME280;37545;45.302;-122.946;2023-02-10T00:19:30;101358.59;;;13.78;49.97
51468;BME280;37545;45.302;-122.946;2023-02-10T00:22:03;101336.69;;;13.70;49.60
51468;BME280;37545;45.302;-122.946;2023-02-10T00:24:31;101343.84;;;13.77;50.67
51468;BME280;37545;45.302;-122.946;2023-02-10T00:26:59;101340.31;;;13.75;51.21
51468;BME280;37545;45.302;-122.946;2023-02-10T00:29:28;101347.38;;;13.79;51.02
51468;BME280;37545;45.302;-122.946;2023-02-10T00:31:59;101340.56;;;13.86;50.46
51468;BME280;37545;45.302;-122.946;2023-02-10T00:34:27;101338.03;;;13.87;50.38
51468;BME280;37545;45.302;-122.946;2023-02-10T00:36:55;101334.56;;;13.87;51.26
51468;BME280;37545;45.302;-122.946;2023-02-10T00:39:25;101336.34;;;13.89;50.78
51468;BME280;37545;45.302;-122.946;2023-02-10T00:41:54;101330.28;;;13.90;50.33
51468;BME280;37545;45.302;-122.946;2023-02-10T00:44:22;101330.22;;;13.87;50.26
51468;BME280;37545;45.302;-122.946;2023-02-10T00:46:51;101330.16;;;13.84;50.51
51468;BME280;37545;45.302;-122.946;2023-02-10T00:49:19;101334.50;;;13.83;51.65
51468;BME280;37545;45.302;-122.946;2023-02-10T00:51:48;101344.88;;;13.83;51.99
51468;BME280;37545;45.302;-122.946;2023-02-10T00:54:16;101346.53;;;13.80;51.94
51468;BME280;37545;45.302;-122.946;2023-02-10T00:56:46;101342.06;;;13.76;52.26
51468;BME280;37545;45.302;-122.946;2023-02-10T00:59:15;101341.09;;;13.71;51.87
51468;BME280;37545;45.302;-122.946;2023-02-10T01:01:43;101332.19;;;13.62;51.24
51468;BME280;37545;45.302;-122.946;2023-02-10T01:04:11;101332.97;;;13.58;52.94
51468;BME280;37545;45.302;-122.946;2023-02-10T01:06:40;101329.44;;;13.56;53.63
51468;BME280;37545;45.302;-122.946;2023-02-10T01:09:17;101324.16;;;13.53;54.05
51468;BME280;37545;45.302;-122.946;2023-02-10T01:11:47;101331.69;;;13.43;53.33
51468;BME280;37545;45.302;-122.946;2023-02-10T01:14:16;101334.97;;;13.37;54.22
51468;BME280;37545;45.302;-122.946;2023-02-10T01:16:45;101326.22;;;13.33;54.76
51468;BME280;37545;45.302;-122.946;2023-02-10T01:19:14;101330.34;;;13.27;55.29
51468;BME280;37545;45.302;-122.946;2023-02-10T01:21:43;101322.38;;;13.20;54.77
51468;BME280;37545;45.302;-122.946;2023-02-10T01:24:11;101323.03;;;13.13;55.25
51468;BME280;37545;45.302;-122.946;2023-02-10T01:26:40;101312.38;;;13.04;55.89
51468;BME280;37545;45.302;-122.946;2023-02-10T01:29:10;101311.94;;;12.89;57.05
51468;BME280;37545;45.302;-122.946;2023-02-10T01:31:38;101305.41;;;12.71;58.20
51468;BME280;37545;45.302;-122.946;2023-02-10T01:34:07;101310.34;;;12.64;57.45
51468;BME280;37545;45.302;-122.946;2023-02-10T01:36:36;101298.00;;;12.56;57.06
51468;BME280;37545;45.302;-122.946;2023-02-10T01:39:04;101302.25;;;12.53;57.70
51468;BME280;37545;45.302;-122.946;2023-02-10T01:41:33;101308.97;;;12.46;57.95
51468;BME280;37545;45.302;-122.946;2023-02-10T01:44:03;101307.00;;;12.39;58.98
51468;BME280;37545;45.302;-122.946;2023-02-10T01:46:34;101305.00;;;12.30;59.35
51468;BME280;37545;45.302;-122.946;2023-02-10T01:49:12;101315.03;;;12.20;59.28
51468;BME280;37545;45.302;-122.946;2023-02-10T01:51:51;101311.38;;;12.13;59.39
51468;BME280;37545;45.302;-122.946;2023-02-10T01:54:22;101313.66;;;12.04;58.55
51468;BME280;37545;45.302;-122.946;2023-02-10T01:56:53;101311.66;;;11.95;59.96
51468;BME280;37545;45.302;-122.946;2023-02-10T01:59:22;101321.78;;;11.87;60.26
51468;BME280;37545;45.302;-122.946;2023-02-10T02:01:55;101314.47;;;11.77;60.44
51468;BME280;37545;45.302;-122.946;2023-02-10T02:04:24;101299.47;;;11.67;61.37
51468;BME280;37545;45.302;-122.946;2023-02-10T02:06:52;101307.03;;;11.61;60.93
51468;BME280;37545;45.302;-122.946;2023-02-10T02:09:21;101312.72;;;11.50;61.27
51468;BME280;37545;45.302;-122.946;2023-02-10T02:11:55;101322.00;;;11.44;61.46
51468;BME280;37545;45.302;-122.946;2023-02-10T02:14:30;101330.31;;;11.35;62.77
51468;BME280;37545;45.302;-122.946;2023-02-10T02:17:06;101323.97;;;11.27;62.72
51468;BME280;37545;45.302;-122.946;2023-02-10T02:20:16;101337.50;;;11.18;63.67
51468;BME280;37545;45.302;-122.946;2023-02-10T02:23:25;101343.94;;;11.05;63.60
51468;BME280;37545;45.302;-122.946;2023-02-10T02:26:21;101353.13;;;10.97;64.04
51468;BME280;37545;45.302;-122.946;2023-02-10T02:29:16;101356.25;;;10.88;65.04
51468;BME280;37545;45.302;-122.946;2023-02-10T02:31:59;101361.19;;;10.82;64.45
51468;BME280;37545;45.302;-122.946;2023-02-10T02:34:37;101359.28;;;10.77;65.33
51468;BME280;37545;45.302;-122.946;2023-02-10T02:37:09;101359.72;;;10.66;65.51
51468;BME280;37545;45.302;-122.946;2023-02-10T02:39:41;101365.66;;;10.64;65.89
51468;BME280;37545;45.302;-122.946;2023-02-10T02:42:19;101354.84;;;10.52;65.74
51468;BME280;37545;45.302;-122.946;2023-02-10T02:44:50;101372.88;;;10.50;66.61
51468;BME280;37545;45.302;-122.946;2023-02-10T02:47:44;101378.28;;;10.34;67.88
51468;BME280;37545;45.302;-122.946;2023-02-10T02:50:23;101352.94;;;10.05;68.42
51468;BME280;37545;45.302;-122.946;2023-02-10T02:53:16;101385.44;;;9.99;70.00
51468;BME280;37545;45.302;-122.946;2023-02-10T02:55:52;101375.97;;;9.78;72.11
51468;BME280;37545;45.302;-122.946;2023-02-10T02:58:32;101363.13;;;9.60;72.93
51468;BME280;37545;45.302;-122.946;2023-02-10T03:01:07;101355.72;;;9.49;74.28
51468;BME280;37545;45.302;-122.946;2023-02-10T03:03:39;101344.28;;;9.43;75.58
51468;BME280;37545;45.302;-122.946;2023-02-10T03:06:08;101354.78;;;9.47;75.85
51468;BME280;37545;45.302;-122.946;2023-02-10T03:08:39;101352.88;;;9.42;74.94
51468;BME280;37545;45.302;-122.946;2023-02-10T03:11:08;101354.38;;;9.37;76.35
51468;BME280;37545;45.302;-122.946;2023-02-10T03:13:37;101358.47;;;9.32;76.62
51468;BME280;37545;45.302;-122.946;2023-02-10T03:16:06;101352.19;;;9.27;76.40
51468;BME280;37545;45.302;-122.946;2023-02-10T03:18:34;101352.06;;;9.24;75.82
51468;BME280;37545;45.302;-122.946;2023-02-10T03:21:05;101355.44;;;9.23;75.57
51468;BME280;37545;45.302;-122.946;2023-02-10T03:23:33;101351.78;;;9.18;75.89
51468;BME280;37545;45.302;-122.946;2023-02-10T03:26:02;101346.50;;;9.15;76.14
51468;BME280;37545;45.302;-122.946;2023-02-10T03:28:30;101355.75;;;9.10;76.22
51468;BME280;37545;45.302;-122.946;2023-02-10T03:31:02;101358.03;;;9.04;76.91
51468;BME280;37545;45.302;-122.946;2023-02-10T03:33:31;101349.22;;;8.98;76.12
51468;BME280;37545;45.302;-122.946;2023-02-10T03:35:59;101348.25;;;8.96;76.34
51468;BME280;37545;45.302;-122.946;2023-02-10T03:38:29;101361.03;;;8.93;76.51
51468;BME280;37545;45.302;-122.946;2023-02-10T03:40:58;101366.91;;;8.91;77.50
51468;BME280;37545;45.302;-122.946;2023-02-10T03:43:26;101371.81;;;8.85;77.92
51468;BME280;37545;45.302;-122.946;2023-02-10T03:45:58;101380.34;;;8.84;79.61
51468;BME280;37545;45.302;-122.946;2023-02-10T03:48:33;101384.72;;;8.85;79.36
51468;BME280;37545;45.302;-122.946;2023-02-10T03:51:03;101381.38;;;8.87;80.14
51468;BME280;37545;45.302;-122.946;2023-02-10T03:53:34;101391.78;;;8.89;79.94
51468;BME280;37545;45.302;-122.946;2023-02-10T03:56:03;101396.00;;;8.87;80.60
51468;BME280;37545;45.302;-122.946;2023-02-10T03:58:32;101379.16;;;8.77;80.70
51468;BME280;37545;45.302;-122.946;2023-02-10T04:01:09;101383.00;;;8.85;80.75
51468;BME280;37545;45.302;-122.946;2023-02-10T04:03:37;101401.84;;;8.84;81.90
51468;BME280;37545;45.302;-122.946;2023-02-10T04:06:07;101402.56;;;8.80;82.37
51468;BME280;37545;45.302;-122.946;2023-02-10T04:08:37;101405.94;;;8.79;81.98
51468;BME280;37545;45.302;-122.946;2023-02-10T04:11:06;101406.75;;;8.78;84.19
51468;BME280;37545;45.302;-122.946;2023-02-10T04:13:35;101406.59;;;8.75;84.47
51468;BME280;37545;45.302;-122.946;2023-02-10T04:16:05;101404.75;;;8.72;84.81
51468;BME280;37545;45.302;-122.946;2023-02-10T04:18:34;101430.56;;;8.72;84.97
51468;BME280;37545;45.302;-122.946;2023-02-10T04:21:03;101426.31;;;8.73;85.14
51468;BME280;37545;45.302;-122.946;2023-02-10T04:23:32;101421.94;;;8.72;85.94
51468;BME280;37545;45.302;-122.946;2023-02-10T04:26:02;101437.41;;;8.72;84.69
51468;BME280;37545;45.302;-122.946;2023-02-10T04:28:31;101447.75;;;8.72;86.49
51468;BME280;37545;45.302;-122.946;2023-02-10T04:31:00;101445.97;;;8.71;86.37
51468;BME280;37545;45.302;-122.946;2023-02-10T04:33:29;101450.31;;;8.72;86.74
51468;BME280;37545;45.302;-122.946;2023-02-10T04:35:57;101448.63;;;8.72;85.48
51468;BME280;37545;45.302;-122.946;2023-02-10T04:38:29;101452.91;;;8.72;86.46
51468;BME280;37545;45.302;-122.946;2023-02-10T04:40:58;101473.09;;;8.63;86.65
51468;BME280;37545;45.302;-122.946;2023-02-10T04:43:28;101470.28;;;8.58;87.97
51468;BME280;37545;45.302;-122.946;2023-02-10T04:45:57;101473.69;;;8.57;88.88
51468;BME280;37545;45.302;-122.946;2023-02-10T04:48:25;101455.56;;;8.55;90.69
51468;BME280;37545;45.302;-122.946;2023-02-10T04:50:54;101462.47;;;8.56;90.91
51468;BME280;37545;45.302;-122.946;2023-02-10T04:53:23;101478.63;;;8.52;91.71
51468;BME280;37545;45.302;-122.946;2023-02-10T04:55:52;101476.78;;;8.50;91.36
51468;BME280;37545;45.302;-122.946;2023-02-10T04:58:20;101477.50;;;8.47;91.18
51468;BME280;37545;45.302;-122.946;2023-02-10T05:00:51;101491.34;;;8.49;91.61
51468;BME280;37545;45.302;-122.946;2023-02-10T05:03:22;101490.63;;;8.52;90.74
51468;BME280;37545;45.302;-122.946;2023-02-10T05:05:50;101486.50;;;8.55;94.00
51468;BME280;37545;45.302;-122.946;2023-02-10T05:08:20;101489.91;;;8.54;93.69
51468;BME280;37545;45.302;-122.946;2023-02-10T05:10:50;101489.91;;;8.54;93.22
51468;BME280;37545;45.302;-122.946;2023-02-10T05:13:19;101492.63;;;8.57;94.90
51468;BME280;37545;45.302;-122.946;2023-02-10T05:15:48;101491.97;;;8.62;94.63
51468;BME280;37545;45.302;-122.946;2023-02-10T05:18:18;101488.72;;;8.66;95.16
51468;BME280;37545;45.302;-122.946;2023-02-10T05:20:46;101491.59;;;8.72;98.08
51468;BME280;37545;45.302;-122.946;2023-02-10T05:23:15;101484.16;;;8.78;99.19
51468;BME280;37545;45.302;-122.946;2023-02-10T05:25:43;101473.97;;;8.81;99.90
51468;BME280;37545;45.302;-122.946;2023-02-10T05:28:11;101495.50;;;8.81;98.87
51468;BME280;37545;45.302;-122.946;2023-02-10T05:30:40;101473.97;;;8.81;100.00
51468;BME280;37545;45.302;-122.946;2023-02-10T05:33:08;101490.34;;;8.81;100.00
51468;BME280;37545;45.302;-122.946;2023-02-10T05:35:38;101490.44;;;8.83;100.00
51468;BME280;37545;45.302;-122.946;2023-02-10T05:38:07;101493.09;;;8.85;100.00
51468;BME280;37545;45.302;-122.946;2023-02-10T05:40:36;101493.00;;;8.83;100.00
51468;BME280;37545;45.302;-122.946;2023-02-10T05:43:05;101505.03;;;8.83;100.00
51468;BME280;37545;45.302;-122.946;2023-02-10T05:45:34;101515.59;;;8.87;100.00
51468;BME280;37545;45.302;-122.946;2023-02-10T05:48:03;101505.56;;;8.93;100.00
51468;BME280;37545;45.302;-122.946;2023-02-10T05:50:31;101504.81;;;8.96;100.00
51468;BME280;37545;45.302;-122.946;2023-02-10T05:53:01;101483.34;;;8.97;100.00
51468;BME280;37545;45.302;-122.946;2023-02-10T05:55:30;101504.22;;;9.01;100.00
51468;BME280;37545;45.302;-122.946;2023-02-10T05:57:58;101514.84;;;9.08;100.00
51468;BME280;37545;45.302;-122.946;2023-02-10T06:00:26;101516.75;;;9.12;100.00
51468;BME280;37545;45.302;-122.946;2023-02-10T06:02:55;101513.50;;;9.16;100.00
51468;BME280;37545;45.302;-122.946;2023-02-10T06:05:23;101517.19;;;9.21;100.00
51468;BME280;37545;45.302;-122.946;2023-02-10T06:07:52;101520.88;;;9.26;100.00
51468;BME280;37545;45.302;-122.946;2023-02-10T06:10:22;101520.22;;;9.30;100.00
51468;BME280;37545;45.302;-122.946;2023-02-10T06:12:51;101526.47;;;9.35;100.00
51468;BME280;37545;45.302;-122.946;2023-02-10T06:15:20;101531.75;;;9.38;100.00
51468;BME280;37545;45.302;-122.946;2023-02-10T06:17:48;101545.56;;;9.39;100.00
51468;BME280;37545;45.302;-122.946;2023-02-10T06:20:17;101543.19;;;9.43;100.00
51468;BME280;37545;45.302;-122.946;2023-02-10T06:22:45;101527.97;;;9.50;100.00
51468;BME280;37545;45.302;-122.946;2023-02-10T06:25:13;101519.28;;;9.48;100.00
51468;BME280;37545;45.302;-122.946;2023-02-10T06:27:44;101520.97;;;9.47;100.00
51468;BME280;37545;45.302;-122.946;2023-02-10T06:30:13;101525.94;;;9.42;99.34
51468;BME280;37545;45.302;-122.946;2023-02-10T06:32:41;101534.66;;;9.44;99.85
51468;BME280;37545;45.302;-122.946;2023-02-10T06:35:10;101526.75;;;9.41;98.95
51468;BME280;37545;45.302;-122.946;2023-02-10T06:37:38;101526.75;;;9.41;98.36
51468;BME280;37545;45.302;-122.946;2023-02-10T06:40:08;101527.63;;;9.42;98.54
51468;BME280;37545;45.302;-122.946;2023-02-10T06:42:36;101532.59;;;9.37;98.14
51468;BME280;37545;45.302;-122.946;2023-02-10T06:45:07;101524.69;;;9.34;98.06
51468;BME280;37545;45.302;-122.946;2023-02-10T06:47:36;101534.22;;;9.35;97.77
51468;BME280;37545;45.302;-122.946;2023-02-10T06:50:05;101527.00;;;9.28;97.80
51468;BME280;37545;45.302;-122.946;2023-02-10T06:52:35;101530.47;;;9.29;97.71
51468;BME280;37545;45.302;-122.946;2023-02-10T06:55:05;101534.88;;;9.31;99.06
51468;BME280;37545;45.302;-122.946;2023-02-10T06:57:34;101536.66;;;9.32;100.00
51468;BME280;37545;45.302;-122.946;2023-02-10T07:00:04;101536.81;;;9.35;100.00
51468;BME280;37545;45.302;-122.946;2023-02-10T07:02:35;101535.22;;;9.39;100.00
51468;BME280;37545;45.302;-122.946;2023-02-10T07:05:04;101535.22;;;9.39;100.00
51468;BME280;37545;45.302;-122.946;2023-02-10T07:07:34;101526.59;;;9.38;100.00
51468;BME280;37545;45.302;-122.946;2023-02-10T07:10:03;101534.56;;;9.43;100.00
51468;BME280;37545;45.302;-122.946;2023-02-10T07:12:31;101535.59;;;9.47;100.00
51468;BME280;37545;45.302;-122.946;2023-02-10T07:15:00;101526.06;;;9.46;100.00
51468;BME280;37545;45.302;-122.946;2023-02-10T07:17:28;101546.94;;;9.50;100.00
51468;BME280;37545;45.302;-122.946;2023-02-10T07:19:58;101534.78;;;9.48;100.00
51468;BME280;37545;45.302;-122.946;2023-02-10T07:22:27;101552.28;;;9.53;100.00
51468;BME280;37545;45.302;-122.946;2023-02-10T07:24:56;101555.59;;;9.51;100.00
51468;BME280;37545;45.302;-122.946;2023-02-10T07:27:25;101553.03;;;9.51;100.00
51468;BME280;37545;45.302;-122.946;2023-02-10T07:29:53;101558.25;;;9.52;100.00
51468;BME280;37545;45.302;-122.946;2023-02-10T07:32:30;101558.31;;;9.54;100.00
51468;BME280;37545;45.302;-122.946;2023-02-10T07:35:00;101564.25;;;9.51;100.00
51468;BME280;37545;45.302;-122.946;2023-02-10T07:37:28;101570.06;;;9.47;100.00
51468;BME280;37545;45.302;-122.946;2023-02-10T07:39:58;101559.50;;;9.42;100.00
51468;BME280;37545;45.302;-122.946;2023-02-10T07:42:26;101573.41;;;9.44;100.00
51468;BME280;37545;45.302;-122.946;2023-02-10T07:44:55;101553.78;;;9.30;95.58
51468;BME280;37545;45.302;-122.946;2023-02-10T07:47:23;101567.94;;;9.38;93.27
51468;BME280;37545;45.302;-122.946;2023-02-10T07:49:52;101562.75;;;9.38;93.00
51468;BME280;37545;45.302;-122.946;2023-02-10T07:52:22;101570.59;;;9.40;91.55
51468;BME280;37545;45.302;-122.946;2023-02-10T07:54:57;101568.09;;;9.41;90.02
51468;BME280;37545;45.302;-122.946;2023-02-10T07:57:28;101581.00;;;9.41;87.84
51468;BME280;37545;45.302;-122.946;2023-02-10T07:59:57;101578.44;;;9.41;88.75
51468;BME280;37545;45.302;-122.946;2023-02-10T08:02:25;101577.81;;;9.47;88.72
51468;BME280;37545;45.302;-122.946;2023-02-10T08:04:54;101573.47;;;9.46;88.94
51468;BME280;37545;45.302;-122.946;2023-02-10T08:07:26;101567.28;;;9.42;89.17
51468;BME280;37545;45.302;-122.946;2023-02-10T08:09:54;101578.78;;;9.49;88.48
51468;BME280;37545;45.302;-122.946;2023-02-10T08:12:23;101587.41;;;9.50;88.79
51468;BME280;37545;45.302;-122.946;2023-02-10T08:14:51;101586.59;;;9.51;89.43
51468;BME280;37545;45.302;-122.946;2023-02-10T08:17:19;101586.53;;;9.49;88.78
51468;BME280;37545;45.302;-122.946;2023-02-10T08:19:48;101589.25;;;9.52;90.36
51468;BME280;37545;45.302;-122.946;2023-02-10T08:22:16;101583.13;;;9.50;90.92
51468;BME280;37545;45.302;-122.946;2023-02-10T08:24:46;101585.91;;;9.55;91.96
51468;BME280;37545;45.302;-122.946;2023-02-10T08:27:15;101588.66;;;9.58;93.21
51468;BME280;37545;45.302;-122.946;2023-02-10T08:29:43;101587.84;;;9.59;93.52
51468;BME280;37545;45.302;-122.946;2023-02-10T08:32:12;101593.31;;;9.65;93.93
51468;BME280;37545;45.302;-122.946;2023-02-10T08:34:45;101598.47;;;9.65;94.22
51468;BME280;37545;45.302;-122.946;2023-02-10T08:37:13;101596.84;;;9.67;94.80
51468;BME280;37545;45.302;-122.946;2023-02-10T08:39:42;101591.69;;;9.67;94.88
51468;BME280;37545;45.302;-122.946;2023-02-10T08:42:12;101599.47;;;9.69;95.44
51468;BME280;37545;45.302;-122.946;2023-02-10T08:44:40;101580.38;;;9.65;95.01
51468;BME280;37545;45.302;-122.946;2023-02-10T08:47:09;101574.91;;;9.59;96.38
51468;BME280;37545;45.302;-122.946;2023-02-10T08:49:41;101582.66;;;9.59;98.62
51468;BME280;37545;45.302;-122.946;2023-02-10T08:52:09;101578.13;;;9.53;100.00
51468;BME280;37545;45.302;-122.946;2023-02-10T08:54:38;101586.59;;;9.51;100.00
51468;BME280;37545;45.302;-122.946;2023-02-10T08:57:06;101585.66;;;9.49;99.50
51468;BME280;37545;45.302;-122.946;2023-02-10T08:59:37;101584.75;;;9.48;100.00
51468;BME280;37545;45.302;-122.946;2023-02-10T09:02:06;101579.34;;;9.43;100.00
51468;BME280;37545;45.302;-122.946;2023-02-10T09:04:35;101580.19;;;9.42;100.00
51468;BME280;37545;45.302;-122.946;2023-02-10T09:07:03;101583.59;;;9.41;100.00
51468;BME280;37545;45.302;-122.946;2023-02-10T09:09:31;101588.75;;;9.41;100.00
51468;BME280;37545;45.302;-122.946;2023-02-10T09:12:04;101590.38;;;9.39;100.00
51468;BME280;37545;45.302;-122.946;2023-02-10T09:14:33;101576.13;;;9.30;100.00
51468;BME280;37545;45.302;-122.946;2023-02-10T09:17:03;101582.63;;;9.39;100.00
51468;BME280;37545;45.302;-122.946;2023-02-10T09:19:34;101578.25;;;9.38;100.00
51468;BME280;37545;45.302;-122.946;2023-02-10T09:22:03;101586.00;;;9.38;100.00
51468;BME280;37545;45.302;-122.946;2023-02-10T09:24:31;101585.88;;;9.35;100.00
51468;BME280;37545;45.302;-122.946;2023-02-10T09:27:00;101574.59;;;9.33;100.00
51468;BME280;37545;45.302;-122.946;2023-02-10T09:29:28;101563.81;;;9.24;100.00
51468;BME280;37545;45.302;-122.946;2023-02-10T09:31:57;101580.50;;;9.31;100.00
51468;BME280;37545;45.302;-122.946;2023-02-10T09:34:27;101578.78;;;9.31;100.00
51468;BME280;37545;45.302;-122.946;2023-02-10T09:36:58;101578.88;;;9.33;100.00
51468;BME280;37545;45.302;-122.946;2023-02-10T09:39:28;101570.16;;;9.31;100.00
51468;BME280;37545;45.302;-122.946;2023-02-10T09:42:06;101576.34;;;9.34;100.00
51468;BME280;37545;45.302;-122.946;2023-02-10T09:44:40;101578.00;;;9.32;100.00
51468;BME280;37545;45.302;-122.946;2023-02-10T09:47:33;101581.22;;;9.28;100.00
51468;BME280;37545;45.302;-122.946;2023-02-10T09:50:26;101577.53;;;9.23;100.00
51468;BME280;37545;45.302;-122.946;2023-02-10T09:53:09;101587.78;;;9.21;100.00
51468;BME280;37545;45.302;-122.946;2023-02-10T09:55:43;101595.59;;;9.23;100.00
51468;BME280;37545;45.302;-122.946;2023-02-10T09:58:19;101588.69;;;9.22;100.00
51468;BME280;37545;45.302;-122.946;2023-02-10T10:00:55;101580.78;;;9.19;100.00
51468;BME280;37545;45.302;-122.946;2023-02-10T10:03:28;101589.50;;;9.21;100.00
51468;BME280;37545;45.302;-122.946;2023-02-10T10:06:10;101593.00;;;9.23;100.00
51468;BME280;37545;45.302;-122.946;2023-02-10T10:08:45;101588.69;;;9.22;100.00
51468;BME280;37545;45.302;-122.946;2023-02-10T10:11:24;101592.22;;;9.24;100.00
51468;BME280;37545;45.302;-122.946;2023-02-10T10:13:54;101579.31;;;9.24;100.00
51468;BME280;37545;45.302;-122.946;2023-02-10T10:16:41;101595.75;;;9.26;100.00
51468;BME280;37545;45.302;-122.946;2023-02-10T10:19:20;101594.94;;;9.27;100.00
51468;BME280;37545;45.302;-122.946;2023-02-10T10:22:00;101591.69;;;9.31;100.00
51468;BME280;37545;45.302;-122.946;2023-02-10T10:24:46;101592.56;;;9.32;100.00
51468;BME280;37545;45.302;-122.946;2023-02-10T10:27:24;101584.78;;;9.30;100.00
51468;BME280;37545;45.302;-122.946;2023-02-10T10:30:02;101583.00;;;9.29;100.00
51468;BME280;37545;45.302;-122.946;2023-02-10T10:32:38;101590.06;;;9.33;100.00
51468;BME280;37545;45.302;-122.946;2023-02-10T10:35:15;101578.56;;;9.27;100.00
51468;BME280;37545;45.302;-122.946;2023-02-10T10:37:46;101579.44;;;9.27;100.00
51468;BME280;37545;45.302;-122.946;2023-02-10T10:40:17;101582.84;;;9.26;100.00
51468;BME280;37545;45.302;-122.946;2023-02-10T10:42:50;101589.63;;;9.24;100.00
51468;BME280;37545;45.302;-122.946;2023-02-10T10:45:22;101588.81;;;9.25;100.00
51468;BME280;37545;45.302;-122.946;2023-02-10T10:47:55;101578.44;;;9.23;100.00
51468;BME280;37545;45.302;-122.946;2023-02-10T10:50:24;101591.41;;;9.25;100.00
51468;BME280;37545;45.302;-122.946;2023-02-10T10:52:55;101584.47;;;9.24;100.00
51468;BME280;37545;45.302;-122.946;2023-02-10T10:55:27;101587.06;;;9.24;100.00
51468;BME280;37545;45.302;-122.946;2023-02-10T10:58:00;101577.53;;;9.23;100.00
51468;BME280;37545;45.302;-122.946;2023-02-10T11:00:29;101577.69;;;9.26;100.00
51468;BME280;37545;45.302;-122.946;2023-02-10T11:03:00;101580.28;;;9.26;100.00
51468;BME280;37545;45.302;-122.946;2023-02-10T11:05:30;101580.41;;;9.29;100.00
51468;BME280;37545;45.302;-122.946;2023-02-10T11:08:04;101575.25;;;9.29;100.00
51468;BME280;37545;45.302;-122.946;2023-02-10T11:10:38;101572.56;;;9.28;100.00
51468;BME280;37545;45.302;-122.946;2023-02-10T11:13:20;101578.69;;;9.30;100.00
51468;BME280;37545;45.302;-122.946;2023-02-10T11:15:58;101566.63;;;9.29;100.00
51468;BME280;37545;45.302;-122.946;2023-02-10T11:18:29;101573.69;;;9.33;100.00
51468;BME280;37545;45.302;-122.946;2023-02-10T11:20:59;101573.84;;;9.36;100.00
51468;BME280;37545;45.302;-122.946;2023-02-10T11:23:30;101567.66;;;9.32;100.00
51468;BME280;37545;45.302;-122.946;2023-02-10T11:26:04;101573.97;;;9.39;100.00
51468;BME280;37545;45.302;-122.946;2023-02-10T11:28:33;101580.19;;;9.42;100.00
51468;BME280;37545;45.302;-122.946;2023-02-10T11:31:06;101565.50;;;9.41;100.00
51468;BME280;37545;45.302;-122.946;2023-02-10T11:33:41;101576.94;;;9.47;100.00
51468;BME280;37545;45.302;-122.946;2023-02-10T11:36:10;101579.75;;;9.51;100.00
51468;BME280;37545;45.302;-122.946;2023-02-10T11:38:41;101574.78;;;9.56;100.00
51468;BME280;37545;45.302;-122.946;2023-02-10T11:41:09;101573.06;;;9.56;100.00
51468;BME280;37545;45.302;-122.946;2023-02-10T11:43:42;101575.88;;;9.61;100.00
51468;BME280;37545;45.302;-122.946;2023-02-10T11:46:20;101571.66;;;9.63;100.00
51468;BME280;37545;45.302;-122.946;2023-02-10T11:48:56;101575.22;;;9.65;100.00
51468;BME280;37545;45.302;-122.946;2023-02-10T11:51:26;101580.38;;;9.65;100.00
51468;BME280;37545;45.302;-122.946;2023-02-10T11:53:57;101582.97;;;9.65;100.00
51468;BME280;37545;45.302;-122.946;2023-02-10T11:56:33;101577.78;;;9.65;100.00
51468;BME280;37545;45.302;-122.946;2023-02-10T11:59:30;101581.34;;;9.67;100.00
51468;BME280;37545;45.302;-122.946;2023-02-10T12:02:04;101573.59;;;9.67;100.00
51468;BME280;37545;45.302;-122.946;2023-02-10T12:05:01;101586.50;;;9.67;100.00
51468;BME280;37545;45.302;-122.946;2023-02-10T12:07:44;101586.34;;;9.64;100.00
51468;BME280;37545;45.302;-122.946;2023-02-10T12:10:23;101585.38;;;9.62;100.00
51468;BME280;37545;45.302;-122.946;2023-02-10T12:13:01;101582.78;;;9.62;100.00
51468;BME280;37545;45.302;-122.946;2023-02-10T12:15:38;101585.38;;;9.62;100.00
51468;BME280;37545;45.302;-122.946;2023-02-10T12:18:36;101582.75;;;9.60;100.00
51468;BME280;37545;45.302;-122.946;2023-02-10T12:21:21;101587.69;;;9.56;100.00
51468;BME280;37545;45.302;-122.946;2023-02-10T12:24:03;101584.03;;;9.51;100.00
51468;BME280;37545;45.302;-122.946;2023-02-10T12:26:43;101589.19;;;9.51;100.00
51468;BME280;37545;45.302;-122.946;2023-02-10T12:29:25;101567.94;;;9.38;100.00
51468;BME280;37545;45.302;-122.946;2023-02-10T12:32:03;101589.78;;;9.45;100.00
51468;BME280;37545;45.302;-122.946;2023-02-10T12:34:52;101582.09;;;9.47;100.00
51468;BME280;37545;45.302;-122.946;2023-02-10T12:37:32;101583.13;;;9.50;100.00
51468;BME280;37545;45.302;-122.946;2023-02-10T12:40:18;101582.25;;;9.50;100.00
51468;BME280;37545;45.302;-122.946;2023-02-10T12:42:57;101580.47;;;9.49;100.00
51468;BME280;37545;45.302;-122.946;2023-02-10T12:45:32;101587.41;;;9.50;100.00
51468;BME280;37545;45.302;-122.946;2023-02-10T12:48:15;101584.06;;;9.52;100.00